Lesley Pg — MXUG5 — position and weather

sailwx.info

Track history (hours):
 
Tides and Currents Weather Stations Pressure Air Temp Water Temp Dewpoint Dewpoint Depression Visibility Wind Speed Wind Dir Waves Ship Positions

Lesley Pg

Last reported at 2016-Dec-07 19:33 UTC. Time now 2016-Dec-08 02:16 UTC.
Position N 10°19' W 061°29'.

Length 102 m; draft 4.4 m.

Type: Tanker. MMSI: 234910000.

Date/timePositionNaut miles runAvg speedWind from/ knotsBaromVisibWave heightAir tempDewpointWater temp
2016-Dec-07 19:33N 10°19' W 061°29'1 1.2
2016-Dec-07 18:27N 10°19' W 061°31'0 0.0
2016-Dec-07 17:15N 10°19' W 061°31'0 0.0
2016-Dec-07 16:33N 10°19' W 061°31'0 0.0
2016-Dec-07 15:33N 10°19' W 061°31'0 0.0
2016-Dec-07 14:33N 10°19' W 061°31'0 0.0
2016-Dec-07 13:33N 10°19' W 061°31'0 0.0
2016-Dec-07 12:33N 10°19' W 061°31'0 0.0
2016-Dec-07 11:33N 10°19' W 061°31'6 6.1
2016-Dec-07 10:34N 10°23' W 061°35'1212.1
2016-Dec-07 09:34N 10°32' W 061°43'7 7.1
2016-Dec-07 08:33N 10°38' W 061°47'1110.6
2016-Dec-07 07:33N 10°49' W 061°50'28211.5
2016-Dec-06 07:06N 15°30' W 061°34'611.3
2016-Dec-06 06:33N 15°35' W 061°38'1211.5
2016-Dec-06 05:32N 15°43' W 061°46'4111.9
2016-Dec-06 02:09N 16°16' W 062°11'711.7
2016-Dec-06 01:32N 16°22' W 062°15'1111.6
2016-Dec-06 00:33N 16°32' W 062°21'1111.4
2016-Dec-05 23:33N 16°41' W 062°27'  
2016-Nov-29 14:03N 15°28' W 061°34'712.1
2016-Nov-29 13:28N 15°34' W 061°38'1112.5
2016-Nov-29 12:33N 15°43' W 061°46'5012.6
2016-Nov-29 08:33N 16°23' W 062°16'1212.2
2016-Nov-29 07:34N 16°33' W 062°24'1212.0
2016-Nov-29 06:33N 16°43' W 062°31'6312.4
2016-Nov-29 01:29N 17°34' W 063°08'1111.7
2016-Nov-29 00:32N 17°43' W 063°16'1212.2
2016-Nov-28 23:33N 17°48' W 063°27'1212.2
2016-Nov-28 22:32N 17°54' W 063°39'1211.8
2016-Nov-28 21:31N 17°59' W 063°50'4611.4
2016-Nov-28 17:27N 18°22' W 064°33'5 0.7
2016-Nov-28 11:07N 18°25' W 064°36'1 0.9
2016-Nov-28 10:33N 18°25' W 064°36'87 9.5
2016-Nov-28 01:23N 17°43' W 063°15'  
Track history (hours):
 
Tides and Currents Weather Stations Pressure Air Temp Water Temp Dewpoint Dewpoint Depression Visibility Wind Speed Wind Dir Waves Ship Positions

Lesley Pg

Last reported at 2016-Dec-07 19:33 UTC. Time now 2016-Dec-08 02:16 UTC.
Position N 10°19' W 061°29'.

Length 102 m; draft 4.4 m.

Type: Tanker. MMSI: 234910000.

Date/timePositionNaut miles runAvg speedWind from/ knotsBaromVisibWave heightAir tempDewpointWater temp
2016-Dec-07 19:33N 10°19' W 061°29'1 1.2
2016-Dec-07 18:27N 10°19' W 061°31'0 0.0
2016-Dec-07 17:15N 10°19' W 061°31'0 0.0
2016-Dec-07 16:33N 10°19' W 061°31'0 0.0
2016-Dec-07 15:33N 10°19' W 061°31'0 0.0
2016-Dec-07 14:33N 10°19' W 061°31'0 0.0
2016-Dec-07 13:33N 10°19' W 061°31'0 0.0
2016-Dec-07 12:33N 10°19' W 061°31'0 0.0
2016-Dec-07 11:33N 10°19' W 061°31'6 6.1
2016-Dec-07 10:34N 10°23' W 061°35'1212.1
2016-Dec-07 09:34N 10°32' W 061°43'7 7.1
2016-Dec-07 08:33N 10°38' W 061°47'1110.6
2016-Dec-07 07:33N 10°49' W 061°50'28211.5
2016-Dec-06 07:06N 15°30' W 061°34'611.3
2016-Dec-06 06:33N 15°35' W 061°38'1211.5
2016-Dec-06 05:32N 15°43' W 061°46'4111.9
2016-Dec-06 02:09N 16°16' W 062°11'711.7
2016-Dec-06 01:32N 16°22' W 062°15'1111.6
2016-Dec-06 00:33N 16°32' W 062°21'1111.4
2016-Dec-05 23:33N 16°41' W 062°27'  
2016-Nov-29 14:03N 15°28' W 061°34'712.1
2016-Nov-29 13:28N 15°34' W 061°38'1112.5
2016-Nov-29 12:33N 15°43' W 061°46'5012.6
2016-Nov-29 08:33N 16°23' W 062°16'1212.2
2016-Nov-29 07:34N 16°33' W 062°24'1212.0
2016-Nov-29 06:33N 16°43' W 062°31'6312.4
2016-Nov-29 01:29N 17°34' W 063°08'1111.7
2016-Nov-29 00:32N 17°43' W 063°16'1212.2
2016-Nov-28 23:33N 17°48' W 063°27'1212.2
2016-Nov-28 22:32N 17°54' W 063°39'1211.8
2016-Nov-28 21:31N 17°59' W 063°50'4611.4
2016-Nov-28 17:27N 18°22' W 064°33'5 0.7
2016-Nov-28 11:07N 18°25' W 064°36'1 0.9
2016-Nov-28 10:33N 18°25' W 064°36'87 9.5
2016-Nov-28 01:23N 17°43' W 063°15'  

Dump ship's entire track history